sensor_id;sensor_type;location;lat;lon;timestamp;temperature;humidity
5899;DHT22;2975;50.956;6.962;2023-04-10T00:02:17;8.50;98.70
5899;DHT22;2975;50.956;6.962;2023-04-10T00:04:43;8.40;98.60
5899;DHT22;2975;50.956;6.962;2023-04-10T00:07:09;8.50;98.60
5899;DHT22;2975;50.956;6.962;2023-04-10T00:09:34;8.50;98.60
5899;DHT22;2975;50.956;6.962;2023-04-10T00:12:00;8.40;98.70
5899;DHT22;2975;50.956;6.962;2023-04-10T00:14:26;8.50;98.80
5899;DHT22;2975;50.956;6.962;2023-04-10T00:16:51;8.50;98.40
5899;DHT22;2975;50.956;6.962;2023-04-10T00:19:17;8.50;98.40
5899;DHT22;2975;50.956;6.962;2023-04-10T00:21:43;8.50;98.20
5899;DHT22;2975;50.956;6.962;2023-04-10T00:24:09;8.50;98.30
5899;DHT22;2975;50.956;6.962;2023-04-10T00:26:35;8.40;98.70
5899;DHT22;2975;50.956;6.962;2023-04-10T00:29:01;8.40;98.60
5899;DHT22;2975;50.956;6.962;2023-04-10T00:31:27;8.40;99.00
5899;DHT22;2975;50.956;6.962;2023-04-10T00:33:53;8.40;98.80
5899;DHT22;2975;50.956;6.962;2023-04-10T00:36:18;8.50;98.60
5899;DHT22;2975;50.956;6.962;2023-04-10T00:38:44;8.40;98.70
5899;DHT22;2975;50.956;6.962;2023-04-10T00:41:10;8.40;98.70
5899;DHT22;2975;50.956;6.962;2023-04-10T00:43:36;8.30;99.10
5899;DHT22;2975;50.956;6.962;2023-04-10T00:46:03;8.40;99.00
5899;DHT22;2975;50.956;6.962;2023-04-10T00:48:29;8.40;98.90
5899;DHT22;2975;50.956;6.962;2023-04-10T00:50:55;8.30;98.90
5899;DHT22;2975;50.956;6.962;2023-04-10T00:53:21;8.30;99.10
5899;DHT22;2975;50.956;6.962;2023-04-10T00:55:48;8.20;99.30
5899;DHT22;2975;50.956;6.962;2023-04-10T00:58:14;8.20;99.00
5899;DHT22;2975;50.956;6.962;2023-04-10T01:00:40;8.20;99.10
5899;DHT22;2975;50.956;6.962;2023-04-10T01:03:10;8.20;99.10
5899;DHT22;2975;50.956;6.962;2023-04-10T01:08:53;8.20;99.20
5899;DHT22;2975;50.956;6.962;2023-04-10T01:17:03;8.10;99.10
5899;DHT22;2975;50.956;6.962;2023-04-10T01:19:36;8.10;99.30
5899;DHT22;2975;50.956;6.962;2023-04-10T01:22:09;8.10;99.30
5899;DHT22;2975;50.956;6.962;2023-04-10T01:29:55;8.10;99.40
5899;DHT22;2975;50.956;6.962;2023-04-10T01:32:23;8.10;99.40
5899;DHT22;2975;50.956;6.962;2023-04-10T01:34:51;8.10;99.40
5899;DHT22;2975;50.956;6.962;2023-04-10T01:37:21;8.10;99.30
5899;DHT22;2975;50.956;6.962;2023-04-10T01:39:52;8.10;99.20
5899;DHT22;2975;50.956;6.962;2023-04-10T01:42:19;8.00;99.60
5899;DHT22;2975;50.956;6.962;2023-04-10T01:44:46;8.00;99.50
5899;DHT22;2975;50.956;6.962;2023-04-10T01:47:16;7.90;99.70
5899;DHT22;2975;50.956;6.962;2023-04-10T01:49:45;7.80;99.90
5899;DHT22;2975;50.956;6.962;2023-04-10T01:52:13;7.80;99.90
5899;DHT22;2975;50.956;6.962;2023-04-10T01:54:39;7.80;99.90
5899;DHT22;2975;50.956;6.962;2023-04-10T01:57:05;7.80;99.90
5899;DHT22;2975;50.956;6.962;2023-04-10T01:59:31;7.80;99.90
5899;DHT22;2975;50.956;6.962;2023-04-10T02:01:58;7.90;99.90
5899;DHT22;2975;50.956;6.962;2023-04-10T02:04:24;7.90;99.90
5899;DHT22;2975;50.956;6.962;2023-04-10T02:09:44;8.00;99.90
5899;DHT22;2975;50.956;6.962;2023-04-10T02:12:25;8.00;99.90
5899;DHT22;2975;50.956;6.962;2023-04-10T02:14:54;7.90;99.90
5899;DHT22;2975;50.956;6.962;2023-04-10T02:17:26;7.80;99.90
5899;DHT22;2975;50.956;6.962;2023-04-10T02:19:56;7.80;99.90
5899;DHT22;2975;50.956;6.962;2023-04-10T02:22:23;7.80;99.90
5899;DHT22;2975;50.956;6.962;2023-04-10T02:24:52;7.80;99.90
5899;DHT22;2975;50.956;6.962;2023-04-10T02:27:34;7.70;99.90
5899;DHT22;2975;50.956;6.962;2023-04-10T02:30:01;7.70;99.90
5899;DHT22;2975;50.956;6.962;2023-04-10T02:32:28;7.60;99.90
5899;DHT22;2975;50.956;6.962;2023-04-10T02:34:54;7.60;99.90
5899;DHT22;2975;50.956;6.962;2023-04-10T02:37:20;7.60;99.90
5899;DHT22;2975;50.956;6.962;2023-04-10T02:39:46;7.60;99.90
5899;DHT22;2975;50.956;6.962;2023-04-10T02:42:12;7.60;99.90
5899;DHT22;2975;50.956;6.962;2023-04-10T02:44:37;7.50;99.90
5899;DHT22;2975;50.956;6.962;2023-04-10T02:47:04;7.50;99.90
5899;DHT22;2975;50.956;6.962;2023-04-10T02:49:30;7.40;99.90
5899;DHT22;2975;50.956;6.962;2023-04-10T02:51:56;7.40;99.90
5899;DHT22;2975;50.956;6.962;2023-04-10T02:54:22;7.40;99.90
5899;DHT22;2975;50.956;6.962;2023-04-10T02:56:47;7.40;99.90
5899;DHT22;2975;50.956;6.962;2023-04-10T02:59:13;7.50;99.90
5899;DHT22;2975;50.956;6.962;2023-04-10T03:01:39;7.50;99.90
5899;DHT22;2975;50.956;6.962;2023-04-10T03:04:05;7.50;99.90
5899;DHT22;2975;50.956;6.962;2023-04-10T03:06:31;7.50;99.90
5899;DHT22;2975;50.956;6.962;2023-04-10T03:08:56;7.50;99.90
5899;DHT22;2975;50.956;6.962;2023-04-10T03:11:22;7.50;99.90
5899;DHT22;2975;50.956;6.962;2023-04-10T03:13:48;7.50;99.90
5899;DHT22;2975;50.956;6.962;2023-04-10T03:16:14;7.50;99.90
5899;DHT22;2975;50.956;6.962;2023-04-10T03:18:41;7.50;99.90
5899;DHT22;2975;50.956;6.962;2023-04-10T03:21:07;7.50;99.90
5899;DHT22;2975;50.956;6.962;2023-04-10T03:23:33;7.40;99.90
5899;DHT22;2975;50.956;6.962;2023-04-10T03:25:58;7.40;99.90
5899;DHT22;2975;50.956;6.962;2023-04-10T03:28:24;7.30;99.90
5899;DHT22;2975;50.956;6.962;2023-04-10T03:30:50;7.30;99.90
5899;DHT22;2975;50.956;6.962;2023-04-10T03:33:16;7.30;99.90
5899;DHT22;2975;50.956;6.962;2023-04-10T03:35:44;7.30;99.90
5899;DHT22;2975;50.956;6.962;2023-04-10T03:38:10;7.30;99.90
5899;DHT22;2975;50.956;6.962;2023-04-10T03:40:35;7.30;99.90
5899;DHT22;2975;50.956;6.962;2023-04-10T03:43:01;7.40;99.90
5899;DHT22;2975;50.956;6.962;2023-04-10T03:45:26;7.40;99.90
5899;DHT22;2975;50.956;6.962;2023-04-10T03:47:52;7.40;99.90
5899;DHT22;2975;50.956;6.962;2023-04-10T03:50:17;7.40;99.90
5899;DHT22;2975;50.956;6.962;2023-04-10T03:52:43;7.30;99.90
5899;DHT22;2975;50.956;6.962;2023-04-10T03:55:09;7.30;99.90
5899;DHT22;2975;50.956;6.962;2023-04-10T03:57:34;7.30;99.90
5899;DHT22;2975;50.956;6.962;2023-04-10T04:00:00;7.30;99.90
5899;DHT22;2975;50.956;6.962;2023-04-10T04:02:27;7.20;99.90
5899;DHT22;2975;50.956;6.962;2023-04-10T04:04:52;7.20;99.90
5899;DHT22;2975;50.956;6.962;2023-04-10T04:07:18;7.10;99.90
5899;DHT22;2975;50.956;6.962;2023-04-10T04:09:43;7.00;99.90
5899;DHT22;2975;50.956;6.962;2023-04-10T04:12:09;7.00;99.90
5899;DHT22;2975;50.956;6.962;2023-04-10T04:14:35;6.90;99.90
5899;DHT22;2975;50.956;6.962;2023-04-10T04:17:01;6.80;99.90
5899;DHT22;2975;50.956;6.962;2023-04-10T04:19:26;6.80;99.90
5899;DHT22;2975;50.956;6.962;2023-04-10T04:21:52;6.70;99.90
5899;DHT22;2975;50.956;6.962;2023-04-10T04:24:17;6.70;99.90
5899;DHT22;2975;50.956;6.962;2023-04-10T04:26:43;6.70;99.90
5899;DHT22;2975;50.956;6.962;2023-04-10T04:29:08;6.60;99.90
5899;DHT22;2975;50.956;6.962;2023-04-10T04:31:34;6.70;99.90
5899;DHT22;2975;50.956;6.962;2023-04-10T04:34:00;6.70;99.90
5899;DHT22;2975;50.956;6.962;2023-04-10T04:36:26;6.70;99.90
5899;DHT22;2975;50.956;6.962;2023-04-10T04:38:53;6.80;99.90
5899;DHT22;2975;50.956;6.962;2023-04-10T04:41:19;6.80;99.90
5899;DHT22;2975;50.956;6.962;2023-04-10T04:43:45;6.80;99.90
5899;DHT22;2975;50.956;6.962;2023-04-10T04:46:12;6.80;99.90
5899;DHT22;2975;50.956;6.962;2023-04-10T04:48:37;6.90;99.90
5899;DHT22;2975;50.956;6.962;2023-04-10T04:51:05;7.00;99.90
5899;DHT22;2975;50.956;6.962;2023-04-10T04:53:31;7.00;99.90
5899;DHT22;2975;50.956;6.962;2023-04-10T04:55:56;7.10;99.90
5899;DHT22;2975;50.956;6.962;2023-04-10T04:58:22;7.10;99.90
5899;DHT22;2975;50.956;6.962;2023-04-10T05:00:52;7.10;99.90
5899;DHT22;2975;50.956;6.962;2023-04-10T05:03:18;7.10;99.90
5899;DHT22;2975;50.956;6.962;2023-04-10T05:05:44;7.20;99.90
5899;DHT22;2975;50.956;6.962;2023-04-10T05:08:10;7.20;99.90
5899;DHT22;2975;50.956;6.962;2023-04-10T05:10:35;7.30;99.90
5899;DHT22;2975;50.956;6.962;2023-04-10T05:13:01;7.50;99.90
5899;DHT22;2975;50.956;6.962;2023-04-10T05:15:27;7.60;99.90
5899;DHT22;2975;50.956;6.962;2023-04-10T05:17:53;7.70;99.90
5899;DHT22;2975;50.956;6.962;2023-04-10T05:20:19;7.70;99.90
5899;DHT22;2975;50.956;6.962;2023-04-10T05:22:46;7.80;99.90
5899;DHT22;2975;50.956;6.962;2023-04-10T05:25:12;7.90;99.70
5899;DHT22;2975;50.956;6.962;2023-04-10T05:27:37;8.10;99.20
5899;DHT22;2975;50.956;6.962;2023-04-10T05:30:03;8.30;98.80
5899;DHT22;2975;50.956;6.962;2023-04-10T05:32:29;8.60;98.10
5899;DHT22;2975;50.956;6.962;2023-04-10T05:34:55;8.90;97.50
5899;DHT22;2975;50.956;6.962;2023-04-10T05:37:20;9.30;96.60
5899;DHT22;2975;50.956;6.962;2023-04-10T05:39:46;9.70;95.90
5899;DHT22;2975;50.956;6.962;2023-04-10T05:42:11;10.40;95.20
5899;DHT22;2975;50.956;6.962;2023-04-10T05:44:38;11.70;93.40
5899;DHT22;2975;50.956;6.962;2023-04-10T05:47:03;13.20;92.40
5899;DHT22;2975;50.956;6.962;2023-04-10T05:49:29;14.30;90.00
5899;DHT22;2975;50.956;6.962;2023-04-10T05:51:55;15.40;85.70
5899;DHT22;2975;50.956;6.962;2023-04-10T05:54:20;16.00;83.90
5899;DHT22;2975;50.956;6.962;2023-04-10T05:56:46;16.80;80.00
5899;DHT22;2975;50.956;6.962;2023-04-10T05:59:12;18.40;75.20
5899;DHT22;2975;50.956;6.962;2023-04-10T06:01:38;18.50;70.70
5899;DHT22;2975;50.956;6.962;2023-04-10T06:04:04;17.70;69.00
5899;DHT22;2975;50.956;6.962;2023-04-10T06:06:30;16.80;70.70
5899;DHT22;2975;50.956;6.962;2023-04-10T06:08:57;15.50;72.30
5899;DHT22;2975;50.956;6.962;2023-04-10T06:11:22;14.40;74.60
5899;DHT22;2975;50.956;6.962;2023-04-10T06:13:48;13.30;77.50
5899;DHT22;2975;50.956;6.962;2023-04-10T06:16:14;12.70;80.50
5899;DHT22;2975;50.956;6.962;2023-04-10T06:18:40;12.20;82.10
5899;DHT22;2975;50.956;6.962;2023-04-10T06:21:06;11.90;84.60
5899;DHT22;2975;50.956;6.962;2023-04-10T06:23:32;11.60;84.60
5899;DHT22;2975;50.956;6.962;2023-04-10T06:25:58;11.40;86.00
5899;DHT22;2975;50.956;6.962;2023-04-10T06:28:24;11.20;86.70
5899;DHT22;2975;50.956;6.962;2023-04-10T06:30:49;11.10;87.60
5899;DHT22;2975;50.956;6.962;2023-04-10T06:33:15;11.10;87.80
5899;DHT22;2975;50.956;6.962;2023-04-10T06:35:41;11.10;88.10
5899;DHT22;2975;50.956;6.962;2023-04-10T06:38:07;11.10;88.60
5899;DHT22;2975;50.956;6.962;2023-04-10T06:40:32;11.20;88.80
5899;DHT22;2975;50.956;6.962;2023-04-10T06:42:59;11.20;89.20
5899;DHT22;2975;50.956;6.962;2023-04-10T06:45:25;11.30;88.60
5899;DHT22;2975;50.956;6.962;2023-04-10T06:47:51;11.40;88.40
5899;DHT22;2975;50.956;6.962;2023-04-10T06:50:16;11.40;88.20
5899;DHT22;2975;50.956;6.962;2023-04-10T06:52:43;11.50;88.00
5899;DHT22;2975;50.956;6.962;2023-04-10T06:55:09;11.60;88.40
5899;DHT22;2975;50.956;6.962;2023-04-10T06:57:37;11.80;88.10
5899;DHT22;2975;50.956;6.962;2023-04-10T07:00:02;11.90;87.60
5899;DHT22;2975;50.956;6.962;2023-04-10T07:02:28;12.00;86.80
5899;DHT22;2975;50.956;6.962;2023-04-10T07:04:54;12.10;86.40
5899;DHT22;2975;50.956;6.962;2023-04-10T07:07:21;12.30;86.20
5899;DHT22;2975;50.956;6.962;2023-04-10T07:09:47;12.30;85.70
5899;DHT22;2975;50.956;6.962;2023-04-10T07:12:12;12.50;85.10
5899;DHT22;2975;50.956;6.962;2023-04-10T07:14:38;12.50;85.30
5899;DHT22;2975;50.956;6.962;2023-04-10T07:17:04;12.60;84.10
5899;DHT22;2975;50.956;6.962;2023-04-10T07:19:29;12.70;84.40
5899;DHT22;2975;50.956;6.962;2023-04-10T07:21:56;13.00;83.90
5899;DHT22;2975;50.956;6.962;2023-04-10T07:24:22;13.10;82.80
5899;DHT22;2975;50.956;6.962;2023-04-10T07:26:47;13.30;81.80
5899;DHT22;2975;50.956;6.962;2023-04-10T07:29:13;13.50;81.10
5899;DHT22;2975;50.956;6.962;2023-04-10T07:31:39;13.60;80.20
5899;DHT22;2975;50.956;6.962;2023-04-10T07:34:06;13.70;81.00
5899;DHT22;2975;50.956;6.962;2023-04-10T07:36:32;13.90;80.90
5899;DHT22;2975;50.956;6.962;2023-04-10T07:38:57;14.10;80.00
5899;DHT22;2975;50.956;6.962;2023-04-10T07:41:23;14.20;78.90
5899;DHT22;2975;50.956;6.962;2023-04-10T07:43:49;14.20;77.60
5899;DHT22;2975;50.956;6.962;2023-04-10T07:46:15;14.20;77.20
5899;DHT22;2975;50.956;6.962;2023-04-10T07:48:41;14.00;77.50
5899;DHT22;2975;50.956;6.962;2023-04-10T07:51:07;14.10;77.50
5899;DHT22;2975;50.956;6.962;2023-04-10T07:53:34;14.10;77.20
5899;DHT22;2975;50.956;6.962;2023-04-10T07:56:01;14.00;78.50
5899;DHT22;2975;50.956;6.962;2023-04-10T07:58:27;14.10;77.80
5899;DHT22;2975;50.956;6.962;2023-04-10T08:00:52;14.20;78.00
5899;DHT22;2975;50.956;6.962;2023-04-10T08:03:18;14.20;77.50
5899;DHT22;2975;50.956;6.962;2023-04-10T08:05:43;14.10;77.40
5899;DHT22;2975;50.956;6.962;2023-04-10T08:08:09;14.20;77.60
5899;DHT22;2975;50.956;6.962;2023-04-10T08:10:36;14.40;76.90
5899;DHT22;2975;50.956;6.962;2023-04-10T08:13:05;14.50;77.30
5899;DHT22;2975;50.956;6.962;2023-04-10T08:15:30;14.60;76.80
5899;DHT22;2975;50.956;6.962;2023-04-10T08:17:56;14.60;76.60
5899;DHT22;2975;50.956;6.962;2023-04-10T08:20:22;14.80;76.80
5899;DHT22;2975;50.956;6.962;2023-04-10T08:22:47;15.00;76.70
5899;DHT22;2975;50.956;6.962;2023-04-10T08:25:13;15.20;76.00
5899;DHT22;2975;50.956;6.962;2023-04-10T08:27:39;15.40;74.40
5899;DHT22;2975;50.956;6.962;2023-04-10T08:30:06;15.60;73.80
5899;DHT22;2975;50.956;6.962;2023-04-10T08:32:31;15.80;71.80
5899;DHT22;2975;50.956;6.962;2023-04-10T08:34:57;15.90;72.00
5899;DHT22;2975;50.956;6.962;2023-04-10T08:37:24;16.00;70.70
5899;DHT22;2975;50.956;6.962;2023-04-10T08:39:51;15.90;69.60
5899;DHT22;2975;50.956;6.962;2023-04-10T08:42:17;16.00;69.30
5899;DHT22;2975;50.956;6.962;2023-04-10T08:44:42;16.00;71.00
5899;DHT22;2975;50.956;6.962;2023-04-10T08:47:08;16.10;68.30
5899;DHT22;2975;50.956;6.962;2023-04-10T08:49:56;16.30;67.10
5899;DHT22;2975;50.956;6.962;2023-04-10T08:52:28;16.40;67.00
5899;DHT22;2975;50.956;6.962;2023-04-10T08:54:56;16.40;66.40
5899;DHT22;2975;50.956;6.962;2023-04-10T08:57:24;16.50;66.00
5899;DHT22;2975;50.956;6.962;2023-04-10T08:59:51;16.70;66.10
5899;DHT22;2975;50.956;6.962;2023-04-10T09:02:18;16.70;65.00
5899;DHT22;2975;50.956;6.962;2023-04-10T09:04:50;16.70;64.00
5899;DHT22;2975;50.956;6.962;2023-04-10T09:07:16;16.90;63.20
5899;DHT22;2975;50.956;6.962;2023-04-10T09:09:43;16.90;62.70
5899;DHT22;2975;50.956;6.962;2023-04-10T09:12:08;16.80;63.30
5899;DHT22;2975;50.956;6.962;2023-04-10T09:14:35;16.90;63.10
5899;DHT22;2975;50.956;6.962;2023-04-10T09:19:53;17.10;61.20
5899;DHT22;2975;50.956;6.962;2023-04-10T09:22:35;17.10;60.80
5899;DHT22;2975;50.956;6.962;2023-04-10T09:25:02;17.10;61.40
5899;DHT22;2975;50.956;6.962;2023-04-10T09:27:33;17.20;60.90
5899;DHT22;2975;50.956;6.962;2023-04-10T09:30:00;17.10;60.80
5899;DHT22;2975;50.956;6.962;2023-04-10T09:32:45;17.20;60.90
5899;DHT22;2975;50.956;6.962;2023-04-10T09:35:14;17.20;60.70
5899;DHT22;2975;50.956;6.962;2023-04-10T09:37:42;17.30;60.40
5899;DHT22;2975;50.956;6.962;2023-04-10T09:40:22;17.30;59.80
5899;DHT22;2975;50.956;6.962;2023-04-10T09:42:52;17.40;59.90
5899;DHT22;2975;50.956;6.962;2023-04-10T09:45:18;17.50;59.60
5899;DHT22;2975;50.956;6.962;2023-04-10T09:48:05;17.50;59.90
5899;DHT22;2975;50.956;6.962;2023-04-10T09:50:38;17.70;59.80
5899;DHT22;2975;50.956;6.962;2023-04-10T09:53:06;17.80;61.20
5899;DHT22;2975;50.956;6.962;2023-04-10T09:55:33;17.80;60.60
5899;DHT22;2975;50.956;6.962;2023-04-10T09:58:00;17.90;60.90
5899;DHT22;2975;50.956;6.962;2023-04-10T10:00:27;17.90;60.40
5899;DHT22;2975;50.956;6.962;2023-04-10T10:02:54;17.80;60.20
5899;DHT22;2975;50.956;6.962;2023-04-10T10:05:22;17.70;60.10
5899;DHT22;2975;50.956;6.962;2023-04-10T10:07:52;17.90;60.20
5899;DHT22;2975;50.956;6.962;2023-04-10T10:10:18;18.10;58.90
5899;DHT22;2975;50.956;6.962;2023-04-10T10:13:03;18.40;58.60
5899;DHT22;2975;50.956;6.962;2023-04-10T10:18:48;18.40;57.90
5899;DHT22;2975;50.956;6.962;2023-04-10T10:21:16;18.70;57.30
5899;DHT22;2975;50.956;6.962;2023-04-10T10:23:44;18.80;57.30
5899;DHT22;2975;50.956;6.962;2023-04-10T10:26:10;18.70;57.70
5899;DHT22;2975;50.956;6.962;2023-04-10T10:28:39;18.70;57.30
5899;DHT22;2975;50.956;6.962;2023-04-10T10:31:05;18.60;57.50
5899;DHT22;2975;50.956;6.962;2023-04-10T10:33:32;18.80;57.20
5899;DHT22;2975;50.956;6.962;2023-04-10T10:36:00;19.00;56.60
5899;DHT22;2975;50.956;6.962;2023-04-10T10:38:27;18.90;57.60
5899;DHT22;2975;50.956;6.962;2023-04-10T10:41:12;18.90;56.80
5899;DHT22;2975;50.956;6.962;2023-04-10T10:44:00;19.30;54.90
5899;DHT22;2975;50.956;6.962;2023-04-10T10:49:06;19.40;54.30
5899;DHT22;2975;50.956;6.962;2023-04-10T10:51:49;19.50;54.20
5899;DHT22;2975;50.956;6.962;2023-04-10T10:54:32;19.40;53.80
5899;DHT22;2975;50.956;6.962;2023-04-10T10:56:59;19.50;54.20
5899;DHT22;2975;50.956;6.962;2023-04-10T11:02:14;19.80;52.80
5899;DHT22;2975;50.956;6.962;2023-04-10T11:04:47;19.80;53.20
5899;DHT22;2975;50.956;6.962;2023-04-10T11:07:14;20.00;52.90
5899;DHT22;2975;50.956;6.962;2023-04-10T11:09:50;20.10;53.10
5899;DHT22;2975;50.956;6.962;2023-04-10T11:12:20;20.10;52.90
5899;DHT22;2975;50.956;6.962;2023-04-10T11:14:56;20.00;52.20
5899;DHT22;2975;50.956;6.962;2023-04-10T11:18:00;20.10;52.80
5899;DHT22;2975;50.956;6.962;2023-04-10T11:20:26;20.10;51.40
5899;DHT22;2975;50.956;6.962;2023-04-10T11:23:12;20.30;51.10
5899;DHT22;2975;50.956;6.962;2023-04-10T11:25:53;20.40;50.80
5899;DHT22;2975;50.956;6.962;2023-04-10T11:28:38;20.20;51.40
5899;DHT22;2975;50.956;6.962;2023-04-10T11:31:21;20.20;51.10
5899;DHT22;2975;50.956;6.962;2023-04-10T11:33:48;20.30;51.10
5899;DHT22;2975;50.956;6.962;2023-04-10T11:36:15;20.30;51.30
5899;DHT22;2975;50.956;6.962;2023-04-10T11:39:03;20.40;51.00
5899;DHT22;2975;50.956;6.962;2023-04-10T11:41:36;20.50;50.60
5899;DHT22;2975;50.956;6.962;2023-04-10T11:44:04;20.70;50.20
5899;DHT22;2975;50.956;6.962;2023-04-10T11:46:34;20.70;50.20
5899;DHT22;2975;50.956;6.962;2023-04-10T11:49:01;20.60;49.90
5899;DHT22;2975;50.956;6.962;2023-04-10T11:51:29;20.50;50.10
5899;DHT22;2975;50.956;6.962;2023-04-10T11:54:08;20.50;50.70
5899;DHT22;2975;50.956;6.962;2023-04-10T11:56:35;20.60;50.10
5899;DHT22;2975;50.956;6.962;2023-04-10T11:59:01;20.70;49.70
5899;DHT22;2975;50.956;6.962;2023-04-10T12:01:27;20.90;49.40
5899;DHT22;2975;50.956;6.962;2023-04-10T12:03:52;20.90;49.80
5899;DHT22;2975;50.956;6.962;2023-04-10T12:06:18;20.80;49.20
5899;DHT22;2975;50.956;6.962;2023-04-10T12:08:46;21.00;48.70
5899;DHT22;2975;50.956;6.962;2023-04-10T12:11:33;21.20;48.40
5899;DHT22;2975;50.956;6.962;2023-04-10T12:13:59;21.20;48.70
5899;DHT22;2975;50.956;6.962;2023-04-10T12:16:24;21.00;48.60
5899;DHT22;2975;50.956;6.962;2023-04-10T12:18:51;21.10;48.50
5899;DHT22;2975;50.956;6.962;2023-04-10T12:21:18;21.00;47.90
5899;DHT22;2975;50.956;6.962;2023-04-10T12:23:44;21.10;47.60
5899;DHT22;2975;50.956;6.962;2023-04-10T12:26:17;21.30;47.40
5899;DHT22;2975;50.956;6.962;2023-04-10T12:28:55;21.20;46.80
5899;DHT22;2975;50.956;6.962;2023-04-10T12:33:57;21.30;46.50
5899;DHT22;2975;50.956;6.962;2023-04-10T12:36:27;21.20;46.50
5899;DHT22;2975;50.956;6.962;2023-04-10T12:39:01;21.30;46.30
5899;DHT22;2975;50.956;6.962;2023-04-10T12:41:32;21.30;46.20
5899;DHT22;2975;50.956;6.962;2023-04-10T12:44:11;21.70;45.40
5899;DHT22;2975;50.956;6.962;2023-04-10T12:46:38;21.70;45.70
5899;DHT22;2975;50.956;6.962;2023-04-10T12:51:51;21.40;46.70
5899;DHT22;2975;50.956;6.962;2023-04-10T12:54:33;21.30;47.20
5899;DHT22;2975;50.956;6.962;2023-04-10T12:56:59;21.40;45.80
5899;DHT22;2975;50.956;6.962;2023-04-10T12:59:26;21.50;44.80
5899;DHT22;2975;50.956;6.962;2023-04-10T13:01:53;21.60;45.00
5899;DHT22;2975;50.956;6.962;2023-04-10T13:04:18;21.40;44.50
5899;DHT22;2975;50.956;6.962;2023-04-10T13:06:45;21.30;46.00
5899;DHT22;2975;50.956;6.962;2023-04-10T13:09:12;21.30;45.70
5899;DHT22;2975;50.956;6.962;2023-04-10T13:11:38;21.70;44.70
5899;DHT22;2975;50.956;6.962;2023-04-10T13:14:04;21.70;45.40
5899;DHT22;2975;50.956;6.962;2023-04-10T13:16:29;21.90;44.20
5899;DHT22;2975;50.956;6.962;2023-04-10T13:18:55;22.10;43.50
5899;DHT22;2975;50.956;6.962;2023-04-10T13:21:21;22.20;43.20
5899;DHT22;2975;50.956;6.962;2023-04-10T13:23:54;22.30;42.80
5899;DHT22;2975;50.956;6.962;2023-04-10T13:26:20;22.30;42.90
5899;DHT22;2975;50.956;6.962;2023-04-10T13:28:46;22.30;42.70
5899;DHT22;2975;50.956;6.962;2023-04-10T13:31:11;22.20;43.20
5899;DHT22;2975;50.956;6.962;2023-04-10T13:33:40;22.10;45.00
5899;DHT22;2975;50.956;6.962;2023-04-10T13:36:06;22.20;45.50
5899;DHT22;2975;50.956;6.962;2023-04-10T13:38:32;22.30;44.40
5899;DHT22;2975;50.956;6.962;2023-04-10T13:40:58;22.40;44.50
5899;DHT22;2975;50.956;6.962;2023-04-10T13:43:23;22.40;45.30
5899;DHT22;2975;50.956;6.962;2023-04-10T13:45:49;22.30;45.80
5899;DHT22;2975;50.956;6.962;2023-04-10T13:48:14;22.20;45.70
5899;DHT22;2975;50.956;6.962;2023-04-10T13:50:42;22.20;46.40
5899;DHT22;2975;50.956;6.962;2023-04-10T13:53:08;22.00;46.50
5899;DHT22;2975;50.956;6.962;2023-04-10T13:55:34;22.10;46.10
5899;DHT22;2975;50.956;6.962;2023-04-10T13:58:02;22.10;46.30
5899;DHT22;2975;50.956;6.962;2023-04-10T14:00:27;22.20;47.40
5899;DHT22;2975;50.956;6.962;2023-04-10T14:02:53;22.30;46.60
5899;DHT22;2975;50.956;6.962;2023-04-10T14:05:18;22.40;46.30
5899;DHT22;2975;50.956;6.962;2023-04-10T14:07:44;22.70;45.30
5899;DHT22;2975;50.956;6.962;2023-04-10T14:10:10;22.90;42.50
5899;DHT22;2975;50.956;6.962;2023-04-10T14:12:35;22.70;41.70
5899;DHT22;2975;50.956;6.962;2023-04-10T14:15:01;22.80;40.70
5899;DHT22;2975;50.956;6.962;2023-04-10T14:17:26;22.80;40.00
5899;DHT22;2975;50.956;6.962;2023-04-10T14:19:52;22.50;40.80
5899;DHT22;2975;50.956;6.962;2023-04-10T14:22:18;22.30;42.70
5899;DHT22;2975;50.956;6.962;2023-04-10T14:24:44;22.00;44.70
5899;DHT22;2975;50.956;6.962;2023-04-10T14:27:10;21.90;45.50
5899;DHT22;2975;50.956;6.962;2023-04-10T14:29:35;22.00;44.90
5899;DHT22;2975;50.956;6.962;2023-04-10T14:32:01;21.90;44.00
5899;DHT22;2975;50.956;6.962;2023-04-10T14:34:26;21.80;42.50
5899;DHT22;2975;50.956;6.962;2023-04-10T14:36:52;21.70;41.10
5899;DHT22;2975;50.956;6.962;2023-04-10T14:39:22;21.50;41.70
5899;DHT22;2975;50.956;6.962;2023-04-10T14:41:48;21.40;41.40
5899;DHT22;2975;50.956;6.962;2023-04-10T14:44:14;21.50;41.10
5899;DHT22;2975;50.956;6.962;2023-04-10T14:46:40;21.60;41.40
5899;DHT22;2975;50.956;6.962;2023-04-10T14:49:05;21.40;40.70
5899;DHT22;2975;50.956;6.962;2023-04-10T14:51:31;21.40;41.40
5899;DHT22;2975;50.956;6.962;2023-04-10T14:53:57;21.50;42.00
5899;DHT22;2975;50.956;6.962;2023-04-10T14:56:23;21.70;42.50
5899;DHT22;2975;50.956;6.962;2023-04-10T14:58:49;21.80;41.70
5899;DHT22;2975;50.956;6.962;2023-04-10T15:01:15;21.60;41.60
5899;DHT22;2975;50.956;6.962;2023-04-10T15:03:41;21.40;41.90
5899;DHT22;2975;50.956;6.962;2023-04-10T15:06:10;21.30;42.20
5899;DHT22;2975;50.956;6.962;2023-04-10T15:08:36;21.30;42.50
5899;DHT22;2975;50.956;6.962;2023-04-10T15:11:01;21.00;42.50
5899;DHT22;2975;50.956;6.962;2023-04-10T15:13:29;20.80;43.60
5899;DHT22;2975;50.956;6.962;2023-04-10T15:15:55;20.50;44.50
5899;DHT22;2975;50.956;6.962;2023-04-10T15:18:21;20.20;44.10
5899;DHT22;2975;50.956;6.962;2023-04-10T15:20:46;20.00;45.10
5899;DHT22;2975;50.956;6.962;2023-04-10T15:23:12;19.90;45.90
5899;DHT22;2975;50.956;6.962;2023-04-10T15:25:37;19.80;45.80
5899;DHT22;2975;50.956;6.962;2023-04-10T15:28:03;19.70;46.10
5899;DHT22;2975;50.956;6.962;2023-04-10T15:30:29;19.70;46.70
5899;DHT22;2975;50.956;6.962;2023-04-10T15:32:55;19.70;47.10
5899;DHT22;2975;50.956;6.962;2023-04-10T15:35:20;19.70;46.80
5899;DHT22;2975;50.956;6.962;2023-04-10T15:37:46;19.70;47.20
5899;DHT22;2975;50.956;6.962;2023-04-10T15:40:12;19.60;47.60
5899;DHT22;2975;50.956;6.962;2023-04-10T15:42:37;19.60;47.40
5899;DHT22;2975;50.956;6.962;2023-04-10T15:45:03;19.70;47.80
5899;DHT22;2975;50.956;6.962;2023-04-10T15:47:29;19.60;48.30
5899;DHT22;2975;50.956;6.962;2023-04-10T15:49:58;19.60;48.50
5899;DHT22;2975;50.956;6.962;2023-04-10T15:52:24;19.60;48.80
5899;DHT22;2975;50.956;6.962;2023-04-10T15:54:49;19.40;49.00
5899;DHT22;2975;50.956;6.962;2023-04-10T15:57:18;19.40;49.80
5899;DHT22;2975;50.956;6.962;2023-04-10T15:59:43;19.20;49.50
5899;DHT22;2975;50.956;6.962;2023-04-10T16:02:09;19.20;49.90
5899;DHT22;2975;50.956;6.962;2023-04-10T16:04:35;19.00;50.40
5899;DHT22;2975;50.956;6.962;2023-04-10T16:07:00;18.90;51.00
5899;DHT22;2975;50.956;6.962;2023-04-10T16:09:26;18.70;51.20
5899;DHT22;2975;50.956;6.962;2023-04-10T16:11:53;18.70;51.40
5899;DHT22;2975;50.956;6.962;2023-04-10T16:14:19;18.60;51.70
5899;DHT22;2975;50.956;6.962;2023-04-10T16:16:45;18.60;51.90
5899;DHT22;2975;50.956;6.962;2023-04-10T16:19:10;18.50;51.80
5899;DHT22;2975;50.956;6.962;2023-04-10T16:21:36;18.40;52.90
5899;DHT22;2975;50.956;6.962;2023-04-10T16:24:01;18.20;53.10
5899;DHT22;2975;50.956;6.962;2023-04-10T16:26:27;18.00;54.90
5899;DHT22;2975;50.956;6.962;2023-04-10T16:28:53;17.90;55.10
5899;DHT22;2975;50.956;6.962;2023-04-10T16:31:18;17.80;55.70
5899;DHT22;2975;50.956;6.962;2023-04-10T16:33:44;17.70;56.60
5899;DHT22;2975;50.956;6.962;2023-04-10T16:36:09;17.60;57.60
5899;DHT22;2975;50.956;6.962;2023-04-10T16:38:35;17.50;59.00
5899;DHT22;2975;50.956;6.962;2023-04-10T16:41:04;17.40;61.00
5899;DHT22;2975;50.956;6.962;2023-04-10T16:43:30;17.40;62.90